Time;durP1;ratioP1;P1;durP2;ratioP2;P2;SDS_P1;SDS_P2;PMS_P1;PMS_P2;Temp;Humidity;BMP_temperature;BMP_pressure;BME280_temperature;BME280_humidity;BME280_pressure;Samples;Min_cycle;Max_cycle;Signal;HPM_P1;HPM_P2
2021/12/28 00:00:25;;;;;;;15.48;8.45;;;7.00;99.90;;;;;;4972130;28;20034;-55
2021/12/28 00:02:51;;;;;;;14.00;7.55;;;7.00;99.90;;;;;;4977739;28;20104;-55
2021/12/28 00:05:19;;;;;;;12.13;8.10;;;7.00;99.90;;;;;;4978253;28;20074;-56
2021/12/28 00:07:44;;;;;;;13.77;8.65;;;7.00;99.90;;;;;;4967161;28;20031;-57
2021/12/28 00:10:13;;;;;;;12.13;8.57;;;7.10;99.90;;;;;;4971622;28;20054;-55
2021/12/28 00:12:39;;;;;;;16.23;7.80;;;7.00;99.90;;;;;;4974636;28;20022;-56
2021/12/28 00:15:19;;;;;;;10.43;7.63;;;7.00;99.90;;;;;;4975030;28;20677;-54
2021/12/28 00:18:04;;;;;;;13.57;8.85;;;7.00;99.90;;;;;;4973213;28;20026;-59
2021/12/28 00:20:36;;;;;;;14.82;7.55;;;6.90;99.90;;;;;;4972503;28;20030;-56
2021/12/28 00:23:07;;;;;;;14.32;8.10;;;6.80;99.90;;;;;;4970460;28;20049;-57
2021/12/28 00:25:32;;;;;;;16.13;8.32;;;6.70;99.90;;;;;;4975538;28;20031;-56
2021/12/28 00:27:58;;;;;;;17.23;9.07;;;6.70;99.90;;;;;;4977545;28;20027;-53
2021/12/28 00:30:24;;;;;;;17.83;8.80;;;6.70;99.90;;;;;;4975843;28;20054;-57
2021/12/28 00:32:56;;;;;;;14.68;8.23;;;6.60;99.90;;;;;;4974714;28;20085;-51
2021/12/28 00:35:23;;;;;;;16.15;8.68;;;6.50;99.90;;;;;;4993417;28;20564;-51
2021/12/28 00:37:50;;;;;;;14.07;8.85;;;6.50;99.90;;;;;;4960615;28;20029;-56
2021/12/28 00:40:17;;;;;;;15.30;9.05;;;6.40;99.90;;;;;;4980396;28;20030;-56
2021/12/28 00:42:43;;;;;;;17.25;9.80;;;6.30;99.90;;;;;;4972308;28;20030;-55
2021/12/28 00:45:09;;;;;;;13.55;8.85;;;6.20;99.90;;;;;;4962591;28;20398;-54
2021/12/28 00:47:35;;;;;;;19.00;9.93;;;6.20;99.90;;;;;;4974878;28;20122;-52
2021/12/28 00:50:00;;;;;;;18.55;10.30;;;6.10;99.90;;;;;;4975676;28;20040;-57
2021/12/28 00:52:26;;;;;;;19.23;10.15;;;6.00;99.90;;;;;;4978188;28;20023;-56
2021/12/28 00:54:52;;;;;;;17.48;10.13;;;6.00;99.90;;;;;;4976820;28;20401;-58
2021/12/28 00:57:17;;;;;;;21.90;10.75;;;5.90;99.90;;;;;;4977406;28;20026;-60
2021/12/28 00:59:43;;;;;;;18.67;9.52;;;5.90;99.90;;;;;;4977327;28;20054;-57
2021/12/28 01:02:08;;;;;;;25.52;11.75;;;5.90;99.90;;;;;;4971465;28;20050;-58
2021/12/28 01:04:34;;;;;;;26.98;12.02;;;5.90;99.90;;;;;;4976535;28;20516;-50
2021/12/28 01:07:00;;;;;;;27.45;12.00;;;5.90;99.90;;;;;;4975815;28;20485;-57
2021/12/28 01:09:31;;;;;;;25.88;10.35;;;6.00;99.90;;;;;;4979688;28;20030;-58
2021/12/28 01:12:02;;;;;;;25.13;11.18;;;6.00;99.90;;;;;;4970777;28;20034;-55
2021/12/28 01:14:28;;;;;;;29.48;10.52;;;6.10;99.90;;;;;;4975809;28;20058;-56
2021/12/28 01:16:54;;;;;;;20.75;9.45;;;6.10;99.90;;;;;;4969765;28;20124;-56
2021/12/28 01:19:19;;;;;;;27.98;9.70;;;6.20;99.90;;;;;;4970964;28;20536;-56
2021/12/28 01:21:45;;;;;;;21.88;8.82;;;6.30;99.90;;;;;;4974006;28;21023;-55
2021/12/28 01:24:11;;;;;;;27.48;9.65;;;6.30;99.90;;;;;;4974575;28;20109;-57
2021/12/28 01:26:37;;;;;;;23.15;9.05;;;6.30;99.90;;;;;;4973568;28;20058;-57
2021/12/28 01:29:03;;;;;;;28.27;8.85;;;6.30;99.90;;;;;;4974829;28;20031;-56
2021/12/28 01:31:28;;;;;;;21.58;8.43;;;6.40;99.90;;;;;;4988228;28;20486;-59
2021/12/28 01:33:54;;;;;;;17.88;7.22;;;6.40;99.90;;;;;;4980835;28;20023;-56
2021/12/28 01:36:20;;;;;;;24.00;7.78;;;6.40;99.90;;;;;;4976054;28;20027;-57
2021/12/28 01:38:46;;;;;;;23.10;7.65;;;6.40;99.90;;;;;;4963730;28;20023;-57
2021/12/28 01:41:12;;;;;;;25.65;8.13;;;6.40;99.90;;;;;;4970940;28;20050;-58
2021/12/28 01:43:40;;;;;;;28.55;6.43;;;6.40;99.90;;;;;;4962753;28;20023;-57
2021/12/28 01:46:05;;;;;;;25.92;6.97;;;6.40;99.90;;;;;;4973074;28;20043;-58
2021/12/28 01:48:38;;;;;;;23.67;5.95;;;6.40;99.90;;;;;;4979702;28;20036;-58
2021/12/28 01:51:07;;;;;;;31.00;6.68;;;6.40;99.90;;;;;;4965527;28;20026;-57
2021/12/28 01:53:34;;;;;;;26.85;7.05;;;6.40;99.90;;;;;;4972330;28;20534;-57
2021/12/28 01:56:08;;;;;;;23.92;7.57;;;6.50;99.90;;;;;;4971257;28;20022;-57
2021/12/28 01:58:34;;;;;;;18.58;5.40;;;6.50;99.90;;;;;;4975616;28;20118;-56
2021/12/28 02:01:00;;;;;;;26.80;5.97;;;6.50;99.90;;;;;;4973158;28;20042;-57
2021/12/28 02:03:29;;;;;;;32.53;6.60;;;6.70;99.90;;;;;;4985577;28;20030;-56
2021/12/28 02:05:55;;;;;;;27.08;6.55;;;6.70;99.90;;;;;;4979020;28;20042;-54
2021/12/28 02:08:21;;;;;;;30.35;8.88;;;6.80;99.90;;;;;;4973379;28;20515;-57
2021/12/28 02:10:50;;;;;;;27.95;7.35;;;6.80;99.90;;;;;;4969344;28;20443;-57
2021/12/28 02:13:17;;;;;;;23.30;5.82;;;6.90;99.90;;;;;;4971507;28;20440;-55
2021/12/28 02:15:43;;;;;;;30.30;7.13;;;7.00;99.90;;;;;;4962365;28;20026;-60
2021/12/28 02:18:11;;;;;;;35.63;6.60;;;7.00;99.90;;;;;;4968177;28;20030;-57
2021/12/28 02:20:37;;;;;;;21.85;4.70;;;7.10;99.90;;;;;;4972174;28;20074;-49
2021/12/28 02:23:04;;;;;;;31.33;4.72;;;7.20;99.90;;;;;;4966443;28;20030;-57
2021/12/28 02:25:31;;;;;;;33.42;6.28;;;7.20;99.90;;;;;;4972248;28;20122;-58
2021/12/28 02:27:57;;;;;;;27.33;4.38;;;7.30;99.90;;;;;;4963444;28;20569;-59
2021/12/28 02:30:23;;;;;;;35.17;5.97;;;7.30;99.90;;;;;;4971446;28;20429;-55
2021/12/28 02:32:50;;;;;;;23.27;4.05;;;7.40;99.90;;;;;;4969825;28;20038;-55
2021/12/28 02:35:20;;;;;;;27.60;5.00;;;7.40;99.90;;;;;;4971383;28;20130;-57
2021/12/28 02:37:46;;;;;;;26.48;4.28;;;7.50;99.90;;;;;;4967812;28;20035;-57
2021/12/28 02:40:15;;;;;;;35.53;5.15;;;7.60;99.90;;;;;;4965513;28;20034;-58
2021/12/28 02:42:41;;;;;;;27.38;4.30;;;7.60;99.90;;;;;;4965178;28;20022;-53
2021/12/28 02:45:10;;;;;;;30.55;4.68;;;7.70;99.90;;;;;;4969131;28;20104;-56
2021/12/28 02:47:44;;;;;;;31.35;4.80;;;7.80;99.90;;;;;;4970651;28;20420;-57
2021/12/28 02:50:20;;;;;;;23.08;4.18;;;7.80;99.90;;;;;;4959068;28;20070;-53
2021/12/28 02:52:46;;;;;;;19.08;3.85;;;7.90;99.90;;;;;;4958704;28;20047;-56
2021/12/28 02:55:16;;;;;;;25.02;5.65;;;7.90;99.90;;;;;;4962170;28;20030;-58
2021/12/28 02:57:50;;;;;;;27.13;4.47;;;7.90;99.90;;;;;;4971693;28;20493;-56
2021/12/28 03:00:30;;;;;;;36.13;5.45;;;8.00;99.90;;;;;;4971064;28;20043;-58
2021/12/28 03:02:56;;;;;;;25.98;4.28;;;8.10;99.90;;;;;;4968344;28;20512;-53
2021/12/28 03:05:22;;;;;;;32.50;4.30;;;8.10;99.90;;;;;;4964339;28;20100;-56
2021/12/28 03:07:47;;;;;;;30.55;4.22;;;8.10;99.90;;;;;;4970612;28;20062;-57
2021/12/28 03:10:13;;;;;;;24.88;5.45;;;8.20;99.90;;;;;;4965691;28;20030;-59
2021/12/28 03:12:38;;;;;;;33.55;4.07;;;8.20;99.90;;;;;;4970049;28;20046;-58
2021/12/28 03:15:04;;;;;;;23.27;4.05;;;8.20;99.90;;;;;;4967464;28;20054;-58
2021/12/28 03:17:30;;;;;;;26.35;5.70;;;8.20;99.90;;;;;;4971588;28;20115;-57
2021/12/28 03:19:56;;;;;;;34.60;5.00;;;8.10;99.90;;;;;;4969523;28;20181;-58
2021/12/28 03:22:21;;;;;;;22.80;3.83;;;8.10;99.90;;;;;;4967536;28;20482;-57
2021/12/28 03:24:47;;;;;;;27.85;4.65;;;8.10;99.90;;;;;;4971169;28;20030;-59
2021/12/28 03:27:12;;;;;;;21.83;4.82;;;8.00;99.90;;;;;;4976290;28;20093;-59
2021/12/28 03:29:38;;;;;;;25.27;4.40;;;8.00;99.90;;;;;;4971418;28;20041;-59
2021/12/28 03:32:04;;;;;;;23.90;4.18;;;8.00;99.90;;;;;;4969653;28;20089;-61
2021/12/28 03:34:29;;;;;;;27.92;4.22;;;8.00;99.90;;;;;;4961869;28;20678;-57
2021/12/28 03:36:55;;;;;;;21.83;3.92;;;8.00;99.90;;;;;;4965699;28;20077;-57
2021/12/28 03:39:20;;;;;;;25.08;3.78;;;8.00;99.90;;;;;;4969024;28;20086;-55
2021/12/28 03:41:46;;;;;;;19.88;4.10;;;8.00;99.90;;;;;;4969406;28;20030;-59
2021/12/28 03:44:12;;;;;;;23.95;3.70;;;8.00;99.90;;;;;;4969912;28;20691;-55
2021/12/28 03:46:38;;;;;;;32.80;4.72;;;8.00;99.90;;;;;;4969152;28;20030;-57
2021/12/28 03:49:03;;;;;;;32.65;5.22;;;8.00;99.90;;;;;;4964912;28;20038;-55
2021/12/28 03:51:29;;;;;;;24.50;5.03;;;8.00;99.90;;;;;;4967194;28;20023;-57
2021/12/28 03:53:55;;;;;;;30.08;5.70;;;8.00;99.90;;;;;;4966773;28;20037;-60
2021/12/28 03:56:21;;;;;;;27.65;5.55;;;7.90;99.90;;;;;;4966106;28;20081;-57
2021/12/28 03:58:48;;;;;;;28.25;5.68;;;8.00;99.90;;;;;;4963810;28;20030;-57
2021/12/28 04:01:17;;;;;;;31.15;5.07;;;7.90;99.90;;;;;;4966727;28;20042;-60
2021/12/28 04:03:42;;;;;;;33.05;5.22;;;7.90;99.90;;;;;;4966305;28;20031;-57
2021/12/28 04:06:09;;;;;;;22.58;4.95;;;7.90;99.90;;;;;;4970263;28;20097;-52
2021/12/28 04:08:41;;;;;;;37.38;6.20;;;8.00;99.90;;;;;;4967904;28;20038;-56
2021/12/28 04:13:47;;;;;;;26.38;5.28;;;8.00;99.90;;;;;;4971181;28;20507;-57
2021/12/28 04:16:13;;;;;;;27.05;4.65;;;8.00;99.90;;;;;;4969170;28;20042;-58
2021/12/28 04:18:39;;;;;;;35.30;5.30;;;8.00;99.90;;;;;;4966698;28;20023;-58
2021/12/28 04:21:06;;;;;;;34.92;5.43;;;8.00;99.90;;;;;;4963461;28;20652;-57
2021/12/28 04:23:32;;;;;;;25.42;5.65;;;8.00;99.90;;;;;;4971817;28;20105;-57
2021/12/28 04:25:57;;;;;;;39.72;6.70;;;8.00;99.90;;;;;;4962855;28;20492;-60
2021/12/28 04:28:23;;;;;;;32.22;6.43;;;8.00;99.90;;;;;;4961572;28;20484;-58
2021/12/28 04:30:48;;;;;;;25.90;6.28;;;8.00;99.90;;;;;;4964296;28;20500;-56
2021/12/28 04:33:14;;;;;;;37.08;7.50;;;8.00;99.90;;;;;;4964550;28;20030;-57
2021/12/28 04:35:40;;;;;;;34.35;6.65;;;8.00;99.90;;;;;;4967406;28;20023;-59
2021/12/28 04:38:05;;;;;;;28.77;6.13;;;8.00;99.90;;;;;;4969060;28;20093;-57
2021/12/28 04:40:31;;;;;;;23.60;6.30;;;8.00;99.90;;;;;;4969434;28;20516;-55
2021/12/28 04:42:56;;;;;;;27.48;6.70;;;8.00;99.90;;;;;;4970948;28;20173;-57
2021/12/28 04:45:22;;;;;;;32.65;6.82;;;8.00;99.90;;;;;;4968500;28;20039;-50
2021/12/28 04:47:48;;;;;;;28.67;6.63;;;8.00;99.90;;;;;;4966122;28;20035;-51
2021/12/28 04:50:14;;;;;;;32.53;6.65;;;8.00;99.90;;;;;;4961482;28;20032;-56
2021/12/28 04:52:41;;;;;;;26.88;8.30;;;8.00;99.90;;;;;;4963472;28;20054;-56
2021/12/28 04:55:16;;;;;;;24.70;6.43;;;8.00;99.90;;;;;;4962691;28;20027;-56
2021/12/28 04:57:43;;;;;;;30.35;6.80;;;8.00;99.90;;;;;;4969047;28;20073;-57
2021/12/28 05:00:13;;;;;;;29.00;7.00;;;8.00;99.90;;;;;;4970112;28;20027;-58
2021/12/28 05:02:39;;;;;;;31.23;6.68;;;8.00;99.90;;;;;;5009737;23;20056;-57
2021/12/28 05:05:05;;;;;;;30.23;7.32;;;8.00;99.90;;;;;;5025727;28;20032;-57
2021/12/28 05:07:30;;;;;;;33.58;7.25;;;8.00;99.90;;;;;;5032350;28;20079;-59
2021/12/28 05:09:58;;;;;;;29.13;7.10;;;8.00;99.90;;;;;;5032349;28;20032;-59
2021/12/28 05:12:25;;;;;;;34.88;6.95;;;8.00;99.90;;;;;;5030056;28;20025;-58
2021/12/28 05:14:51;;;;;;;24.15;6.40;;;8.00;99.90;;;;;;5031941;28;20026;-56
2021/12/28 05:17:16;;;;;;;31.13;6.63;;;8.00;99.90;;;;;;5029401;28;20099;-58
2021/12/28 05:19:42;;;;;;;23.48;6.57;;;7.90;99.90;;;;;;5029033;28;20056;-57
2021/12/28 05:22:08;;;;;;;33.72;6.65;;;8.00;99.90;;;;;;5026505;28;20578;-59
2021/12/28 05:24:35;;;;;;;46.90;13.43;;;8.00;99.90;;;;;;5021433;28;20160;-57
2021/12/28 05:27:01;;;;;;;33.47;8.30;;;8.00;99.90;;;;;;5030004;28;20090;-53
2021/12/28 05:29:27;;;;;;;33.45;6.63;;;8.00;99.90;;;;;;5030598;28;20033;-57
2021/12/28 05:31:52;;;;;;;22.58;6.43;;;8.00;99.90;;;;;;5023011;28;20406;-55
2021/12/28 05:34:18;;;;;;;34.92;6.95;;;8.00;99.90;;;;;;5027729;28;20164;-56
2021/12/28 05:36:44;;;;;;;33.40;7.20;;;8.00;99.90;;;;;;5031093;28;20506;-56
2021/12/28 05:39:09;;;;;;;25.17;6.22;;;7.90;99.90;;;;;;5027401;28;20023;-58
2021/12/28 05:41:35;;;;;;;30.40;6.07;;;8.00;99.90;;;;;;5026345;28;20523;-55
2021/12/28 05:44:00;;;;;;;25.40;5.95;;;8.00;99.90;;;;;;5031823;28;20026;-57
2021/12/28 05:46:26;;;;;;;30.30;5.90;;;8.00;99.90;;;;;;5031298;28;20522;-54
2021/12/28 05:48:52;;;;;;;19.20;5.68;;;7.90;99.90;;;;;;5031959;28;20036;-56
2021/12/28 05:51:17;;;;;;;23.15;5.85;;;7.90;99.90;;;;;;5031578;28;20124;-59
2021/12/28 05:53:43;;;;;;;29.02;6.65;;;8.00;99.90;;;;;;5031776;28;20380;-58
2021/12/28 05:56:08;;;;;;;27.13;6.22;;;7.90;99.90;;;;;;5028369;28;20104;-57
2021/12/28 05:58:34;;;;;;;35.97;6.15;;;7.90;99.90;;;;;;5026734;28;20649;-57
2021/12/28 06:01:00;;;;;;;23.40;5.53;;;7.90;99.90;;;;;;5023911;28;20183;-56
2021/12/28 06:03:26;;;;;;;37.80;6.03;;;8.00;99.90;;;;;;5031033;28;20471;-57
2021/12/28 06:05:51;;;;;;;22.05;5.50;;;8.00;99.90;;;;;;5029479;28;20045;-58
2021/12/28 06:08:17;;;;;;;27.17;7.28;;;8.00;99.90;;;;;;5030499;28;20067;-57
2021/12/28 06:10:43;;;;;;;24.48;5.03;;;7.90;99.90;;;;;;5031023;28;20033;-57
2021/12/28 06:13:08;;;;;;;18.38;4.63;;;8.00;99.90;;;;;;5022369;28;20129;-55
2021/12/28 06:15:34;;;;;;;18.25;5.40;;;7.90;99.90;;;;;;5018373;28;20039;-53
2021/12/28 06:17:59;;;;;;;22.92;5.82;;;7.90;99.90;;;;;;5030313;28;20022;-56
2021/12/28 06:20:25;;;;;;;22.40;5.57;;;7.90;99.90;;;;;;5028162;28;20056;-53
2021/12/28 06:22:51;;;;;;;31.15;5.25;;;7.90;99.90;;;;;;5022175;28;20112;-56
2021/12/28 06:25:16;;;;;;;21.58;6.05;;;7.90;99.90;;;;;;5025277;28;20518;-58
2021/12/28 06:27:42;;;;;;;21.40;5.45;;;7.90;99.90;;;;;;5030733;28;20095;-58
2021/12/28 06:30:08;;;;;;;32.67;12.93;;;7.90;99.90;;;;;;5028012;28;20087;-57
2021/12/28 06:32:35;;;;;;;27.48;9.02;;;7.90;99.90;;;;;;5020704;28;20050;-57
2021/12/28 06:35:01;;;;;;;25.95;7.25;;;7.90;99.90;;;;;;5029546;28;20104;-59
2021/12/28 06:37:26;;;;;;;33.42;10.10;;;7.90;99.90;;;;;;5020424;28;20028;-57
2021/12/28 06:39:52;;;;;;;28.50;9.82;;;7.90;99.90;;;;;;5025390;28;20058;-57
2021/12/28 06:42:17;;;;;;;28.92;12.68;;;7.90;99.90;;;;;;5027478;28;20029;-57
2021/12/28 06:44:45;;;;;;;28.58;15.18;;;7.90;99.90;;;;;;5029764;28;20029;-56
2021/12/28 06:47:11;;;;;;;20.65;8.80;;;7.90;99.90;;;;;;5035450;28;20025;-64
2021/12/28 06:49:37;;;;;;;22.52;7.15;;;7.90;99.90;;;;;;5029109;28;20080;-57
2021/12/28 06:52:03;;;;;;;23.77;6.05;;;7.90;99.90;;;;;;5030483;28;20040;-59
2021/12/28 06:54:28;;;;;;;17.70;4.13;;;7.90;99.90;;;;;;5028127;28;20108;-58
2021/12/28 06:56:54;;;;;;;21.75;4.68;;;7.90;99.90;;;;;;5022942;28;20097;-58
2021/12/28 06:59:19;;;;;;;13.57;4.05;;;7.90;99.90;;;;;;5028849;28;20055;-58
2021/12/28 07:01:45;;;;;;;18.08;6.22;;;7.90;99.90;;;;;;5023054;28;20045;-53
2021/12/28 07:04:10;;;;;;;22.15;5.82;;;7.90;99.90;;;;;;5028645;28;20770;-60
2021/12/28 07:06:36;;;;;;;13.52;3.75;;;8.00;99.90;;;;;;5028087;28;20032;-60
2021/12/28 07:09:02;;;;;;;19.13;3.72;;;7.90;99.90;;;;;;5028878;28;20033;-57
2021/12/28 07:11:27;;;;;;;8.82;3.60;;;7.90;99.90;;;;;;5028854;28;20078;-55
2021/12/28 07:13:53;;;;;;;19.85;4.32;;;8.00;99.90;;;;;;5019233;28;20064;-59
2021/12/28 07:16:19;;;;;;;19.77;4.15;;;7.90;99.90;;;;;;5024590;28;20049;-57
2021/12/28 07:18:45;;;;;;;17.50;4.13;;;7.90;99.90;;;;;;5030625;28;20029;-57
2021/12/28 07:21:11;;;;;;;15.30;3.60;;;8.00;99.90;;;;;;5027928;28;20378;-57
2021/12/28 07:23:37;;;;;;;14.85;3.67;;;8.00;99.90;;;;;;5026411;28;20038;-57
2021/12/28 07:26:02;;;;;;;18.42;3.70;;;8.00;99.90;;;;;;5025480;28;20044;-58
2021/12/28 07:28:28;;;;;;;11.07;3.10;;;8.10;99.90;;;;;;5029840;28;20502;-58
2021/12/28 07:30:54;;;;;;;20.77;5.50;;;8.10;99.90;;;;;;5028309;28;20041;-58
2021/12/28 07:33:20;;;;;;;25.52;11.48;;;8.10;99.90;;;;;;5026446;28;20398;-57
2021/12/28 07:35:45;;;;;;;37.55;14.93;;;8.10;99.90;;;;;;5026743;28;20146;-55
2021/12/28 07:38:11;;;;;;;13.95;4.55;;;8.10;99.90;;;;;;5029724;28;20029;-60
2021/12/28 07:40:36;;;;;;;16.23;5.82;;;8.10;99.90;;;;;;5029604;28;20037;-57
2021/12/28 07:43:03;;;;;;;15.32;4.22;;;8.10;99.90;;;;;;5029220;28;20057;-58
2021/12/28 07:45:29;;;;;;;20.83;9.77;;;8.10;99.90;;;;;;5024482;28;20025;-57
2021/12/28 07:47:54;;;;;;;18.40;3.95;;;8.00;99.90;;;;;;5027017;28;20045;-58
2021/12/28 07:50:20;;;;;;;8.70;2.55;;;8.00;99.90;;;;;;5027250;28;20109;-57
2021/12/28 07:52:47;;;;;;;6.88;3.00;;;8.00;99.90;;;;;;5027786;28;20025;-58
2021/12/28 07:55:13;;;;;;;21.67;7.78;;;7.90;99.90;;;;;;5026163;28;20774;-58
2021/12/28 07:57:39;;;;;;;11.80;4.32;;;7.80;99.90;;;;;;5024056;28;20038;-55
2021/12/28 08:00:16;;;;;;;11.45;5.80;;;7.70;99.90;;;;;;5028927;28;20056;-56
2021/12/28 08:02:43;;;;;;;11.68;4.20;;;7.60;99.90;;;;;;5028697;28;20206;-54
2021/12/28 08:05:10;;;;;;;26.02;11.27;;;7.60;99.90;;;;;;5002189;28;20049;-58
2021/12/28 08:07:35;;;;;;;76.72;33.92;;;7.60;99.90;;;;;;5028176;28;20037;-58
2021/12/28 08:10:01;;;;;;;46.00;18.38;;;7.60;99.90;;;;;;5027911;28;20514;-60
2021/12/28 08:12:27;;;;;;;34.67;14.40;;;7.60;99.90;;;;;;5028368;28;20673;-60
2021/12/28 08:14:53;;;;;;;55.85;24.40;;;7.60;99.90;;;;;;5009850;28;20419;-60
2021/12/28 08:17:18;;;;;;;45.15;19.40;;;7.60;99.90;;;;;;5027558;28;20123;-58
2021/12/28 08:19:44;;;;;;;25.13;9.23;;;7.70;99.90;;;;;;5026828;28;20549;-61
2021/12/28 08:22:10;;;;;;;14.95;5.15;;;7.70;99.90;;;;;;5024146;28;20026;-53
2021/12/28 08:24:35;;;;;;;10.63;4.63;;;7.80;99.90;;;;;;5033111;28;20180;-51
2021/12/28 08:27:01;;;;;;;12.55;4.05;;;7.90;99.90;;;;;;5032744;28;20028;-59
2021/12/28 08:29:27;;;;;;;7.25;3.50;;;7.90;99.90;;;;;;5041067;28;20227;-57
2021/12/28 08:31:53;;;;;;;11.93;4.20;;;7.90;99.90;;;;;;5036952;28;20024;-60
2021/12/28 08:34:19;;;;;;;17.80;8.15;;;8.00;99.90;;;;;;5028684;28;20113;-60
2021/12/28 08:36:44;;;;;;;12.52;3.72;;;8.10;99.90;;;;;;5010007;28;20088;-58
2021/12/28 08:39:10;;;;;;;20.92;7.68;;;8.20;99.90;;;;;;5009540;28;20018;-59
2021/12/28 08:41:35;;;;;;;21.88;8.23;;;8.20;99.90;;;;;;5008738;28;20882;-55
2021/12/28 08:44:02;;;;;;;17.25;8.02;;;8.20;99.90;;;;;;5012335;28;20022;-59
2021/12/28 08:46:29;;;;;;;14.93;6.45;;;8.30;99.90;;;;;;5014880;28;20061;-58
2021/12/28 08:48:55;;;;;;;16.63;6.35;;;8.30;99.90;;;;;;5021767;28;20079;-60
2021/12/28 08:51:21;;;;;;;23.33;13.23;;;8.30;99.90;;;;;;5017794;28;20062;-58
2021/12/28 08:53:47;;;;;;;18.42;9.93;;;8.40;99.90;;;;;;5013059;28;20069;-60
2021/12/28 08:56:13;;;;;;;14.32;7.93;;;8.40;99.90;;;;;;5012121;28;20442;-59
2021/12/28 08:58:38;;;;;;;9.75;4.40;;;8.40;99.90;;;;;;5012059;28;20100;-58
2021/12/28 09:01:04;;;;;;;13.00;4.85;;;8.30;99.90;;;;;;5012693;28;20029;-59
2021/12/28 09:03:30;;;;;;;7.28;3.97;;;8.30;99.90;;;;;;5011049;28;20037;-59
2021/12/28 09:05:56;;;;;;;8.10;4.18;;;8.30;99.90;;;;;;4987475;28;20081;-61
2021/12/28 09:08:22;;;;;;;12.10;7.05;;;8.40;99.90;;;;;;5011809;28;20042;-62
2021/12/28 09:10:49;;;;;;;11.15;7.35;;;8.50;99.90;;;;;;5011452;28;20341;-61
2021/12/28 09:13:15;;;;;;;12.00;4.80;;;8.60;99.90;;;;;;5011530;28;20042;-60
2021/12/28 09:15:42;;;;;;;11.48;5.63;;;8.60;99.90;;;;;;5013302;28;20021;-58
2021/12/28 09:18:09;;;;;;;9.30;5.88;;;8.70;99.90;;;;;;4991667;28;20054;-59
2021/12/28 09:20:35;;;;;;;10.73;6.07;;;8.70;99.90;;;;;;5012068;28;20041;-57
2021/12/28 09:23:01;;;;;;;35.67;21.48;;;8.60;99.90;;;;;;4987608;28;20042;-60
2021/12/28 09:25:26;;;;;;;10.55;4.50;;;8.70;99.90;;;;;;5036967;28;20030;-60
2021/12/28 09:27:54;;;;;;;36.45;18.63;;;8.70;99.90;;;;;;5036469;28;20025;-61
2021/12/28 09:30:20;;;;;;;10.13;6.15;;;8.70;99.90;;;;;;5036083;28;20022;-61
2021/12/28 09:32:48;;;;;;;11.38;3.45;;;8.80;99.90;;;;;;5039161;28;20044;-58
2021/12/28 09:35:14;;;;;;;11.60;3.75;;;8.80;99.90;;;;;;5035147;28;20091;-57
2021/12/28 09:37:39;;;;;;;3.67;2.53;;;8.80;99.90;;;;;;5030305;28;20445;-59
2021/12/28 09:40:08;;;;;;;4.45;2.63;;;8.90;99.90;;;;;;5030456;28;20112;-59
2021/12/28 09:42:34;;;;;;;5.80;2.42;;;9.00;99.90;;;;;;5029268;28;20033;-59
2021/12/28 09:45:00;;;;;;;8.55;5.78;;;9.10;99.90;;;;;;5031231;28;20033;-57
2021/12/28 09:47:27;;;;;;;8.45;5.13;;;9.10;99.90;;;;;;5030953;28;20036;-58
2021/12/28 09:49:52;;;;;;;5.00;2.38;;;9.20;99.90;;;;;;5064174;28;20033;-62
2021/12/28 09:52:18;;;;;;;6.75;2.80;;;9.20;99.90;;;;;;5030925;28;20029;-60
2021/12/28 09:54:45;;;;;;;8.90;4.40;;;9.20;99.90;;;;;;5063413;28;20018;-60
2021/12/28 09:57:15;;;;;;;19.88;11.50;;;9.20;99.90;;;;;;5030815;28;20483;-58
2021/12/28 09:59:42;;;;;;;8.65;4.55;;;9.30;99.90;;;;;;5032413;28;20090;-59
2021/12/28 10:02:10;;;;;;;7.47;2.42;;;9.30;99.90;;;;;;5032931;28;20475;-60
2021/12/28 10:04:50;;;;;;;8.10;2.38;;;9.40;99.90;;;;;;5030118;28;20475;-60
2021/12/28 10:07:18;;;;;;;3.17;1.50;;;9.40;99.90;;;;;;5032066;28;20079;-60
2021/12/28 10:09:44;;;;;;;4.88;2.05;;;9.40;99.90;;;;;;5032219;28;20441;-60
2021/12/28 10:12:10;;;;;;;3.78;1.48;;;9.40;99.90;;;;;;5038816;28;20040;-60
2021/12/28 10:14:36;;;;;;;5.07;2.30;;;9.40;99.90;;;;;;5062857;28;20030;-59
2021/12/28 10:17:05;;;;;;;8.13;1.88;;;9.40;99.90;;;;;;5029831;28;20105;-61
2021/12/28 10:19:49;;;;;;;5.20;1.90;;;9.40;99.90;;;;;;4997057;28;20087;-61
2021/12/28 10:22:33;;;;;;;5.28;2.10;;;9.30;99.90;;;;;;5010787;28;20037;-58
2021/12/28 10:25:00;;;;;;;4.05;1.73;;;9.30;99.90;;;;;;5000005;28;20029;-61
2021/12/28 10:27:29;;;;;;;4.25;1.92;;;9.30;99.90;;;;;;5008971;28;20029;-56
2021/12/28 10:30:00;;;;;;;10.50;1.63;;;9.30;99.90;;;;;;5010389;28;20064;-61
2021/12/28 10:32:28;;;;;;;3.95;1.33;;;9.30;99.90;;;;;;5009248;28;20029;-61
2021/12/28 10:35:07;;;;;;;3.40;1.77;;;9.30;99.90;;;;;;5011114;28;20026;-61
2021/12/28 10:37:36;;;;;;;4.97;2.25;;;9.30;99.90;;;;;;5010417;28;20018;-59
2021/12/28 10:40:06;;;;;;;3.88;2.03;;;9.40;99.90;;;;;;5010598;28;22107;-57
2021/12/28 10:42:53;;;;;;;3.88;1.67;;;9.30;99.90;;;;;;5009798;28;20119;-61
2021/12/28 10:45:22;;;;;;;3.25;1.60;;;9.40;99.90;;;;;;5010042;28;20611;-61
2021/12/28 10:47:49;;;;;;;1.90;1.38;;;9.40;99.90;;;;;;5010381;28;20411;-59
2021/12/28 10:50:29;;;;;;;4.05;1.70;;;9.50;99.90;;;;;;5009606;28;20026;-59
2021/12/28 10:53:18;;;;;;;2.95;1.30;;;9.40;99.90;;;;;;5010121;28;20033;-61
2021/12/28 10:55:46;;;;;;;2.63;0.95;;;9.50;99.90;;;;;;5002553;28;20041;-60
2021/12/28 10:58:44;;;;;;;4.00;1.70;;;9.60;99.90;;;;;;5004565;28;20120;-58
2021/12/28 11:01:20;;;;;;;4.30;2.17;;;9.60;99.90;;;;;;5005616;28;20494;-61
2021/12/28 11:03:57;;;;;;;4.47;1.70;;;9.60;99.90;;;;;;5005438;28;20037;-59
2021/12/28 11:06:35;;;;;;;5.72;1.90;;;9.70;99.90;;;;;;5011052;28;20037;-60
2021/12/28 11:09:11;;;;;;;3.75;1.73;;;9.80;99.90;;;;;;5008456;28;20025;-58
2021/12/28 11:11:39;;;;;;;4.55;2.20;;;9.90;99.90;;;;;;5009736;28;20097;-56
2021/12/28 11:14:16;;;;;;;4.80;2.25;;;9.80;99.90;;;;;;5009612;28;20051;-61
2021/12/28 11:16:51;;;;;;;2.22;1.60;;;9.90;99.90;;;;;;5009937;28;20029;-59
2021/12/28 11:19:30;;;;;;;4.93;2.03;;;9.90;99.90;;;;;;4992760;28;20073;-58
2021/12/28 11:22:00;;;;;;;4.22;1.80;;;10.00;99.90;;;;;;5009079;28;20030;-61
2021/12/28 11:24:47;;;;;;;4.00;2.45;;;9.90;99.90;;;;;;5009964;28;20014;-61
2021/12/28 11:27:27;;;;;;;4.15;2.67;;;9.90;99.90;;;;;;5005016;28;20088;-58
2021/12/28 11:29:52;;;;;;;3.00;1.88;;;9.90;99.90;;;;;;5001448;28;20049;-61
2021/12/28 11:32:20;;;;;;;3.20;1.40;;;9.90;99.90;;;;;;5009315;28;20038;-60
2021/12/28 11:34:46;;;;;;;2.35;1.35;;;9.90;99.90;;;;;;5010014;28;20097;-61
2021/12/28 11:37:20;;;;;;;10.73;4.75;;;9.90;99.90;;;;;;5008977;28;20495;-60
2021/12/28 11:39:59;;;;;;;16.50;7.43;;;10.00;99.90;;;;;;5010446;28;20037;-57
2021/12/28 11:42:27;;;;;;;12.38;5.82;;;10.00;99.90;;;;;;5014814;28;20034;-59
2021/12/28 11:44:53;;;;;;;6.07;3.20;;;10.10;99.90;;;;;;5022866;23;20148;-59
2021/12/28 11:47:20;;;;;;;7.32;3.10;;;10.20;99.90;;;;;;5005016;28;20391;-58
2021/12/28 11:49:46;;;;;;;9.82;4.47;;;10.20;99.90;;;;;;5003470;28;20026;-56
2021/12/28 11:52:16;;;;;;;7.80;4.18;;;10.10;99.90;;;;;;5005293;28;20033;-56
2021/12/28 11:54:44;;;;;;;4.43;2.67;;;10.10;99.90;;;;;;5000164;28;20033;-58
2021/12/28 11:57:31;;;;;;;12.70;4.65;;;10.10;99.90;;;;;;4986390;28;20030;-57
2021/12/28 12:00:06;;;;;;;9.45;5.50;;;10.10;99.90;;;;;;4985018;28;20034;-59
2021/12/28 12:02:45;;;;;;;5.70;3.78;;;10.10;99.90;;;;;;4988449;28;20041;-57
2021/12/28 12:05:26;;;;;;;18.70;7.65;;;10.00;99.90;;;;;;5006254;28;20058;-59
2021/12/28 12:08:13;;;;;;;14.50;6.78;;;10.00;99.90;;;;;;4997197;28;20026;-59
2021/12/28 12:10:45;;;;;;;6.82;4.22;;;9.90;99.90;;;;;;4983841;28;20105;-56
2021/12/28 12:13:13;;;;;;;15.68;7.25;;;9.90;99.90;;;;;;4987656;28;20436;-57
2021/12/28 12:15:42;;;;;;;3.72;2.42;;;9.80;99.90;;;;;;4991361;28;20027;-57
2021/12/28 12:18:11;;;;;;;2.95;1.88;;;9.80;99.90;;;;;;4996623;28;20093;-57
2021/12/28 12:20:37;;;;;;;3.13;1.55;;;9.80;99.90;;;;;;4997484;28;20114;-54
2021/12/28 12:23:18;;;;;;;8.32;3.78;;;9.80;99.90;;;;;;4994423;28;20136;-57
2021/12/28 12:25:48;;;;;;;5.40;2.35;;;9.80;99.90;;;;;;4995774;28;20023;-57
2021/12/28 12:28:15;;;;;;;3.83;2.38;;;9.80;99.90;;;;;;4993708;28;20045;-58
2021/12/28 12:30:47;;;;;;;3.28;2.05;;;9.70;99.90;;;;;;4998099;28;20481;-56
2021/12/28 12:33:15;;;;;;;7.30;3.13;;;9.70;99.90;;;;;;5001423;28;20045;-57
2021/12/28 12:35:49;;;;;;;4.00;1.98;;;9.70;99.90;;;;;;4990638;28;20030;-59
2021/12/28 12:38:14;;;;;;;10.88;6.25;;;9.60;99.90;;;;;;4993769;28;20022;-56
2021/12/28 12:41:21;;;;;;;13.45;8.35;;;9.60;99.90;;;;;;4993539;28;20033;-54
2021/12/28 12:43:55;;;;;;;5.90;2.90;;;9.60;99.90;;;;;;4999691;28;20125;-57
2021/12/28 12:46:33;;;;;;;5.40;3.70;;;9.60;99.90;;;;;;4994460;28;20037;-54
2021/12/28 12:49:10;;;;;;;4.95;3.10;;;9.60;99.90;;;;;;4990369;28;20038;-55
2021/12/28 12:51:45;;;;;;;10.07;5.35;;;9.60;99.90;;;;;;4995489;28;20114;-58
2021/12/28 12:54:41;;;;;;;11.95;6.82;;;9.60;99.90;;;;;;4986585;28;20030;-55